Time;durP1;ratioP1;P1;durP2;ratioP2;P2;SDS_P1;SDS_P2;PMS_P1;PMS_P2;Temp;Humidity;BMP_temperature;BMP_pressure;BME280_temperature;BME280_humidity;BME280_pressure;Samples;Min_cycle;Max_cycle;Signal;HPM_P1;HPM_P2
2023/09/11 00:00:42;;;;;;;2.07;1.30;;;;;;;17.68;100.00;101721.59;2081322;28;20196;-65
2023/09/11 00:01:42;;;;;;;4.50;1.47;;;;;;;17.68;100.00;101730.00;2081251;28;20185;-64
2023/09/11 00:02:42;;;;;;;2.20;1.30;;;;;;;17.63;100.00;101721.38;2081011;28;20264;-64
2023/09/11 00:03:43;;;;;;;2.20;1.30;;;;;;;17.54;100.00;101716.47;2073024;28;20587;-64
2023/09/11 00:04:43;;;;;;;2.63;1.50;;;;;;;17.57;100.00;101729.59;2073080;28;20182;-64
2023/09/11 00:05:45;;;;;;;6.30;1.57;;;;;;;17.50;100.00;101729.06;2078996;28;20186;-64
2023/09/11 00:06:46;;;;;;;5.67;1.60;;;;;;;16.65;100.00;101605.09;2080583;28;20174;-64
2023/09/11 00:07:46;;;;;;;1.80;1.20;;;;;;;17.36;100.00;101724.69;2080640;28;20420;-64
2023/09/11 00:08:46;;;;;;;2.27;1.20;;;;;;;17.29;100.00;101731.31;2081257;28;20177;-63
2023/09/11 00:09:47;;;;;;;2.20;1.33;;;;;;;17.27;100.00;101722.56;2081227;28;20177;-64
2023/09/11 00:10:47;;;;;;;1.93;1.10;;;;;;;16.85;100.00;101658.81;2081265;28;20176;-64
2023/09/11 00:11:48;;;;;;;2.73;1.87;;;;;;;17.33;100.00;101722.78;2081147;28;20173;-63
2023/09/11 00:12:48;;;;;;;3.20;1.57;;;;;;;17.31;100.00;101720.44;2081263;28;20169;-64
2023/09/11 00:13:49;;;;;;;3.17;1.40;;;;;;;17.34;100.00;101727.16;2081242;28;20307;-64
2023/09/11 00:14:49;;;;;;;3.13;1.70;;;;;;;17.33;100.00;101720.00;2081193;28;20177;-64
2023/09/11 00:15:49;;;;;;;4.60;1.60;;;;;;;17.32;100.00;101730.41;2081168;28;20254;-64
2023/09/11 00:16:50;;;;;;;3.20;1.67;;;;;;;17.33;100.00;101728.38;2081132;28;20177;-65
2023/09/11 00:17:50;;;;;;;2.47;1.70;;;;;;;17.32;100.00;101721.22;2081182;28;20177;-63
2023/09/11 00:18:56;;;;;;;2.10;1.30;;;;;;;17.31;100.00;101725.28;2082017;28;20177;-64
2023/09/11 00:19:56;;;;;;;2.70;1.50;;;;;;;17.31;100.00;101722.47;2082586;28;20185;-63
2023/09/11 00:20:57;;;;;;;2.33;1.40;;;;;;;17.31;100.00;101723.22;2082705;28;20430;-64
2023/09/11 00:21:58;;;;;;;2.90;1.50;;;;;;;17.30;100.00;101720.88;2082029;28;20556;-64
2023/09/11 00:22:58;;;;;;;2.97;1.33;;;;;;;17.20;100.00;101708.00;2074326;28;20432;-64
2023/09/11 00:23:58;;;;;;;3.27;1.60;;;;;;;17.26;100.00;101721.00;2074346;28;20206;-64
2023/09/11 00:24:59;;;;;;;2.07;1.10;;;;;;;17.27;100.00;101716.19;2078578;28;20216;-64
2023/09/11 00:25:59;;;;;;;2.67;1.30;;;;;;;17.25;100.00;101719.44;2082598;28;20174;-64
2023/09/11 00:27:00;;;;;;;2.63;1.50;;;;;;;17.21;100.00;101721.56;2082692;28;20196;-64
2023/09/11 00:28:00;;;;;;;2.73;1.30;;;;;;;17.17;100.00;101725.75;2082634;28;20180;-64
2023/09/11 00:29:00;;;;;;;1.60;1.03;;;;;;;17.14;100.00;101721.03;2082542;28;20173;-64
2023/09/11 00:30:01;;;;;;;3.17;1.60;;;;;;;16.73;100.00;101663.19;2082629;28;20533;-64
2023/09/11 00:31:01;;;;;;;2.20;1.00;;;;;;;17.06;100.00;101719.72;2082542;28;20556;-64
2023/09/11 00:32:02;;;;;;;5.20;1.77;;;;;;;17.00;100.00;101713.13;2074813;28;20252;-63
2023/09/11 00:33:03;;;;;;;5.23;1.70;;;;;;;16.73;100.00;101692.44;2074366;28;20180;-64
2023/09/11 00:34:03;;;;;;;4.77;1.97;;;;;;;16.92;100.00;101726.56;2074327;28;20180;-64
2023/09/11 00:35:04;;;;;;;2.53;1.30;;;;;;;16.94;100.00;101723.28;2074393;28;20184;-64
2023/09/11 00:36:05;;;;;;;2.30;1.33;;;;;;;16.87;100.00;101723.53;2074405;28;20188;-64
2023/09/11 00:37:05;;;;;;;1.90;1.13;;;;;;;16.88;100.00;101725.91;2074544;28;20198;-64
2023/09/11 00:38:05;;;;;;;2.10;1.10;;;;;;;16.86;100.00;101721.97;2074373;28;20170;-64
2023/09/11 00:39:06;;;;;;;1.20;1.00;;;;;;;16.83;100.00;101723.66;2074359;28;20714;-63
2023/09/11 00:40:07;;;;;;;3.03;1.50;;;;;;;16.78;100.00;101721.41;2074318;28;20717;-63
2023/09/11 00:41:07;;;;;;;2.13;1.20;;;;;;;16.77;100.00;101714.25;2074338;28;20696;-63
2023/09/11 00:42:08;;;;;;;3.93;1.50;;;;;;;16.79;100.00;101728.56;2074298;28;20305;-65
2023/09/11 00:43:08;;;;;;;2.47;1.30;;;;;;;16.83;100.00;101727.69;2074328;28;20188;-64
2023/09/11 00:44:08;;;;;;;2.97;1.80;;;;;;;16.76;100.00;101715.47;2074281;28;20209;-64
2023/09/11 00:45:11;;;;;;;5.67;1.40;;;;;;;16.75;100.00;101715.94;2074066;28;20614;-63
2023/09/11 00:46:11;;;;;;;4.80;1.50;;;;;;;16.25;100.00;101632.72;2074415;28;20182;-63
2023/09/11 00:47:12;;;;;;;5.87;1.20;;;;;;;16.79;100.00;101722.97;2073598;28;20410;-63
2023/09/11 00:48:12;;;;;;;3.40;1.40;;;;;;;16.58;100.00;101696.91;2080066;28;20216;-63
2023/09/11 00:49:13;;;;;;;5.07;1.60;;;;;;;16.75;100.00;101727.13;2082482;28;20318;-64
2023/09/11 00:50:15;;;;;;;2.43;1.47;;;;;;;16.74;100.00;101728.34;2082458;28;20561;-63
2023/09/11 00:51:15;;;;;;;2.70;1.50;;;;;;;16.74;100.00;101725.53;2082116;28;20573;-63
2023/09/11 00:52:16;;;;;;;5.17;1.93;;;;;;;16.73;100.00;101727.56;2082397;28;20478;-64
2023/09/11 00:53:18;;;;;;;5.00;1.77;;;;;;;16.74;100.00;101726.34;2082478;28;20183;-64
2023/09/11 00:54:22;;;;;;;4.60;1.70;;;;;;;16.27;100.00;101649.84;2082424;28;20189;-63
2023/09/11 00:55:23;;;;;;;3.23;1.47;;;;;;;16.74;100.00;101722.75;2082292;28;21042;-63
2023/09/11 00:56:24;;;;;;;3.90;1.60;;;;;;;16.73;100.00;101726.78;2082328;28;20468;-64
2023/09/11 00:57:25;;;;;;;3.20;1.43;;;;;;;16.73;100.00;101724.78;2082363;28;20415;-64
2023/09/11 00:58:26;;;;;;;3.10;1.50;;;;;;;16.62;100.00;101711.56;2082468;28;20193;-65
2023/09/11 00:59:26;;;;;;;2.10;1.23;;;;;;;16.75;100.00;101721.53;2082262;28;20468;-64
2023/09/11 01:00:27;;;;;;;2.90;1.43;;;;;;;16.77;100.00;101730.25;2082319;28;20702;-64
2023/09/11 01:01:27;;;;;;;2.20;1.60;;;;;;;16.76;100.00;101720.28;2082387;28;20170;-64
2023/09/11 01:02:28;;;;;;;4.20;1.63;;;;;;;16.74;100.00;101728.34;2082354;28;20253;-63
2023/09/11 01:03:28;;;;;;;2.47;1.50;;;;;;;16.75;100.00;101724.34;2082308;28;20177;-64
2023/09/11 01:04:29;;;;;;;2.43;1.50;;;;;;;16.73;100.00;101735.19;2082250;28;20215;-64
2023/09/11 01:05:30;;;;;;;2.57;1.57;;;;;;;16.70;100.00;101722.88;2082363;28;20670;-64
2023/09/11 01:06:31;;;;;;;2.10;1.40;;;;;;;16.70;100.00;101727.69;2082197;28;20165;-64
2023/09/11 01:07:32;;;;;;;2.27;1.47;;;;;;;16.69;100.00;101720.50;2082309;28;20427;-63
2023/09/11 01:08:33;;;;;;;4.00;1.57;;;;;;;16.71;100.00;101726.44;2082141;28;20173;-64
2023/09/11 01:09:34;;;;;;;2.77;1.40;;;;;;;16.69;100.00;101723.31;2082317;28;20246;-64
2023/09/11 01:10:35;;;;;;;2.63;1.40;;;;;;;16.69;100.00;101726.91;2082208;28;20269;-63
2023/09/11 01:11:35;;;;;;;2.57;1.57;;;;;;;16.71;100.00;101726.44;2082177;28;20414;-64
2023/09/11 01:12:37;;;;;;;3.17;1.37;;;;;;;16.72;100.00;101730.81;2082191;28;20413;-63
2023/09/11 01:13:38;;;;;;;2.83;1.70;;;;;;;16.34;100.00;101674.03;2082238;28;20254;-64
2023/09/11 01:14:39;;;;;;;3.73;1.30;;;;;;;16.69;100.00;101723.31;2082288;28;20430;-64
2023/09/11 01:15:47;;;;;;;3.30;1.37;;;;;;;16.69;100.00;101732.50;2082158;28;20270;-63
2023/09/11 01:17:25;;;;;;;3.67;1.63;;;;;;;16.68;100.00;101730.13;2082313;28;20637;-63
2023/09/11 01:18:40;;;;;;;1.53;1.00;;;;;;;16.63;100.00;101727.13;2082231;28;20396;-63
2023/09/11 01:20:12;;;;;;;1.77;1.27;;;;;;;16.52;100.00;101710.66;2082271;28;20899;-63
2023/09/11 01:21:52;;;;;;;2.73;1.67;;;;;;;16.61;100.00;101727.56;2082187;28;20402;-63
2023/09/11 01:23:11;;;;;;;10.63;1.60;;;;;;;16.57;100.00;101726.88;2082225;28;20412;-64
2023/09/11 01:24:37;;;;;;;1.80;1.00;;;;;;;16.54;100.00;101731.38;2082203;28;20554;-64
2023/09/11 01:25:49;;;;;;;1.93;1.30;;;;;;;16.55;100.00;101729.38;2082128;28;20404;-64
2023/09/11 01:26:56;;;;;;;3.23;1.10;;;;;;;16.50;100.00;101729.91;2082183;28;20908;-64
2023/09/11 01:28:13;;;;;;;4.67;1.70;;;;;;;16.44;100.00;101718.47;2082089;28;20481;-63
2023/09/11 01:29:21;;;;;;;4.30;1.50;;;;;;;15.90;100.00;101667.38;2081844;28;20419;-64
2023/09/11 01:30:22;;;;;;;2.40;1.37;;;;;;;16.26;100.00;101737.81;2081957;28;20424;-63
2023/09/11 01:31:24;;;;;;;4.20;1.50;;;;;;;16.23;100.00;101735.88;2081955;28;20441;-63
2023/09/11 01:32:25;;;;;;;2.73;1.40;;;;;;;16.18;100.00;101735.66;2082150;28;20722;-64
2023/09/11 01:33:26;;;;;;;2.33;1.23;;;;;;;16.04;100.00;101714.47;2082119;28;20414;-64
2023/09/11 01:34:26;;;;;;;2.87;1.50;;;;;;;16.13;100.00;101733.41;2082132;28;20412;-63
2023/09/11 01:35:27;;;;;;;2.07;1.30;;;;;;;16.10;100.00;101735.09;2082148;28;20192;-65
2023/09/11 01:36:27;;;;;;;3.50;1.33;;;;;;;16.06;100.00;101737.19;2082065;28;20199;-64
2023/09/11 01:37:30;;;;;;;3.53;2.07;;;;;;;16.03;100.00;101729.69;2082122;28;20173;-64
2023/09/11 01:38:30;;;;;;;3.67;1.50;;;;;;;16.06;100.00;101736.38;2082054;28;20182;-63
2023/09/11 01:39:30;;;;;;;1.87;1.30;;;;;;;16.03;100.00;101749.25;2089567;28;20421;-64
2023/09/11 01:40:34;;;;;;;2.37;1.53;;;;;;;16.00;100.00;101740.97;2089653;28;20552;-63
2023/09/11 01:41:45;;;;;;;2.23;1.30;;;;;;;15.96;100.00;101743.06;2082088;28;20165;-64
2023/09/11 01:42:49;;;;;;;1.60;1.00;;;;;;;15.71;100.00;101701.84;2082114;28;20423;-64
2023/09/11 01:43:51;;;;;;;2.23;1.53;;;;;;;15.63;100.00;101694.88;2081916;28;21000;-64
2023/09/11 01:44:54;;;;;;;2.77;1.67;;;;;;;15.94;100.00;101742.75;2082020;28;20422;-63
2023/09/11 01:45:55;;;;;;;3.70;1.60;;;;;;;15.89;100.00;101746.06;2082095;28;20433;-63
2023/09/11 01:46:57;;;;;;;2.33;1.57;;;;;;;15.82;100.00;101749.84;2082065;28;20416;-63
2023/09/11 01:47:59;;;;;;;4.10;2.10;;;;;;;15.83;100.00;101747.84;2081986;28;20178;-64
2023/09/11 01:49:00;;;;;;;7.40;1.60;;;;;;;15.81;100.00;101742.69;2081930;28;20856;-64
2023/09/11 01:50:02;;;;;;;8.70;2.00;;;;;;;15.86;100.00;101747.75;2081950;28;20489;-64
2023/09/11 01:51:04;;;;;;;3.17;1.73;;;;;;;15.86;100.00;101747.75;2081707;28;20433;-63
2023/09/11 01:52:07;;;;;;;6.03;1.90;;;;;;;15.85;100.00;101739.78;2081917;28;20422;-63
2023/09/11 01:53:07;;;;;;;2.77;1.53;;;;;;;15.87;100.00;101745.72;2081874;28;20430;-64
2023/09/11 01:54:09;;;;;;;3.20;1.90;;;;;;;15.87;100.00;101754.91;2081962;28;20419;-64
2023/09/11 01:55:10;;;;;;;1.73;1.20;;;;;;;15.85;100.00;101745.38;2082065;28;20423;-64
2023/09/11 01:56:11;;;;;;;4.33;1.80;;;;;;;15.90;100.00;101750.44;2081906;28;20417;-64
2023/09/11 01:57:11;;;;;;;2.87;1.50;;;;;;;15.80;100.00;101738.34;2081871;28;20175;-64
2023/09/11 01:58:12;;;;;;;3.17;1.60;;;;;;;15.89;100.00;101748.88;2081898;28;20511;-63
2023/09/11 01:59:14;;;;;;;9.90;1.80;;;;;;;15.82;100.00;101740.66;2081931;28;20220;-64
2023/09/11 02:00:15;;;;;;;4.63;2.10;;;;;;;15.79;100.00;101742.31;2081751;28;20177;-64
2023/09/11 02:01:15;;;;;;;5.43;1.43;;;;;;;15.83;100.00;101736.66;2081894;28;20421;-64
2023/09/11 02:02:15;;;;;;;4.23;1.87;;;;;;;15.93;100.00;101749.56;2081786;28;20186;-63
2023/09/11 02:03:16;;;;;;;4.10;1.63;;;;;;;15.97;100.00;101748.22;2081762;28;20181;-64
2023/09/11 02:04:16;;;;;;;2.73;1.53;;;;;;;15.90;100.00;101739.25;2081845;28;20267;-63
2023/09/11 02:05:17;;;;;;;2.93;1.27;;;;;;;15.86;100.00;101739.34;2077444;28;20186;-63
2023/09/11 02:06:18;;;;;;;3.23;1.70;;;;;;;15.98;100.00;101744.19;2073561;28;20182;-64
2023/09/11 02:07:18;;;;;;;5.40;1.77;;;;;;;15.91;100.00;101729.63;2075720;28;20211;-63
2023/09/11 02:08:19;;;;;;;2.47;1.80;;;;;;;15.65;100.00;101683.25;2081830;28;20255;-63
2023/09/11 02:09:19;;;;;;;2.90;1.63;;;;;;;16.07;100.00;101751.94;2081792;28;20177;-63
2023/09/11 02:10:19;;;;;;;4.13;1.50;;;;;;;16.09;100.00;101755.84;2081888;28;20204;-64
2023/09/11 02:11:22;;;;;;;3.60;1.33;;;;;;;16.09;100.00;101753.06;2081825;28;20172;-63
2023/09/11 02:12:22;;;;;;;3.53;1.50;;;;;;;16.05;100.00;101746.00;2081489;28;20196;-64
2023/09/11 02:13:23;;;;;;;3.80;1.63;;;;;;;16.07;100.00;101752.72;2081653;28;20505;-64
2023/09/11 02:14:23;;;;;;;2.40;1.60;;;;;;;15.98;100.00;101737.84;2081796;28;20174;-63
2023/09/11 02:15:23;;;;;;;2.73;1.23;;;;;;;15.92;100.00;101734.00;2081820;28;20181;-63
2023/09/11 02:16:24;;;;;;;2.93;1.57;;;;;;;16.05;100.00;101748.81;2081761;28;20207;-64
2023/09/11 02:17:24;;;;;;;3.13;1.70;;;;;;;16.06;100.00;101747.56;2081822;28;20173;-64
2023/09/11 02:18:24;;;;;;;2.37;1.40;;;;;;;16.07;100.00;101747.13;2081676;28;20654;-64
2023/09/11 02:19:25;;;;;;;3.20;1.87;;;;;;;16.06;100.00;101751.16;2081837;28;20259;-64
2023/09/11 02:20:26;;;;;;;1.80;1.20;;;;;;;16.05;100.00;101746.00;2081588;28;20187;-64
2023/09/11 02:21:26;;;;;;;4.57;1.73;;;;;;;16.01;100.00;101753.72;2081705;28;20685;-64
2023/09/11 02:22:27;;;;;;;8.17;1.60;;;;;;;16.03;100.00;101756.88;2081684;28;20674;-63
2023/09/11 02:23:27;;;;;;;3.27;1.47;;;;;;;16.06;100.00;101753.97;2081663;28;20259;-64
2023/09/11 02:24:28;;;;;;;6.40;1.50;;;;;;;16.07;100.00;101749.13;2081757;28;20260;-63
2023/09/11 02:25:28;;;;;;;3.10;1.53;;;;;;;16.09;100.00;101755.84;2081738;28;20172;-64
2023/09/11 02:26:28;;;;;;;8.87;1.57;;;;;;;16.12;100.00;101748.59;2081557;28;20211;-64
2023/09/11 02:27:29;;;;;;;4.37;1.63;;;;;;;16.12;100.00;101755.00;2081657;28;20184;-64
2023/09/11 02:28:31;;;;;;;9.73;1.73;;;;;;;16.14;100.00;101748.97;2081702;28;20169;-64
2023/09/11 02:29:31;;;;;;;5.97;1.80;;;;;;;16.11;100.00;101749.84;2081517;28;20223;-64
2023/09/11 02:30:32;;;;;;;4.83;1.70;;;;;;;16.17;100.00;101748.06;2081547;28;20412;-64
2023/09/11 02:31:32;;;;;;;5.90;1.87;;;;;;;16.15;100.00;101747.72;2081566;28;20188;-64
2023/09/11 02:32:33;;;;;;;5.63;1.80;;;;;;;16.13;100.00;101750.19;2081556;28;20240;-64
2023/09/11 02:33:33;;;;;;;8.17;2.20;;;;;;;16.18;100.00;101749.66;2081684;28;20317;-63
2023/09/11 02:34:33;;;;;;;6.03;2.10;;;;;;;16.18;100.00;101752.44;2081553;28;20191;-63
2023/09/11 02:35:34;;;;;;;5.43;1.50;;;;;;;16.15;100.00;101748.50;2081564;28;20170;-64
2023/09/11 02:36:34;;;;;;;3.03;1.43;;;;;;;16.18;100.00;101755.25;2081636;28;20180;-64
2023/09/11 02:37:35;;;;;;;2.37;1.43;;;;;;;16.21;100.00;101759.94;2081384;28;20379;-65
2023/09/11 02:38:35;;;;;;;4.80;1.53;;;;;;;16.24;100.00;101759.06;2081624;28;20192;-64
2023/09/11 02:39:36;;;;;;;4.83;1.47;;;;;;;16.25;100.00;101752.22;2081544;28;20176;-64
2023/09/11 02:40:37;;;;;;;2.23;1.27;;;;;;;15.94;100.00;101703.59;2081585;28;20177;-64
2023/09/11 02:41:37;;;;;;;1.87;1.03;;;;;;;16.26;100.00;101762.19;2080917;28;20177;-64
2023/09/11 02:42:38;;;;;;;2.33;1.10;;;;;;;16.16;100.00;101732.50;2081519;28;20555;-64
2023/09/11 02:43:38;;;;;;;2.67;1.13;;;;;;;16.07;100.00;101724.78;2081516;28;20208;-64
2023/09/11 02:44:39;;;;;;;1.10;1.00;;;;;;;15.84;100.00;101694.28;2081517;28;20187;-64
2023/09/11 02:45:42;;;;;;;3.10;1.47;;;;;;;16.25;100.00;101752.22;2081599;28;20274;-64
2023/09/11 02:46:43;;;;;;;3.27;1.57;;;;;;;16.22;100.00;101753.09;2081661;28;20187;-64
2023/09/11 02:47:43;;;;;;;2.17;1.30;;;;;;;16.21;100.00;101757.94;2081241;28;20443;-63
2023/09/11 02:48:45;;;;;;;2.67;1.40;;;;;;;16.10;100.00;101743.47;2080827;28;20199;-63
2023/09/11 02:49:46;;;;;;;3.83;1.27;;;;;;;16.18;100.00;101753.22;2081032;28;20252;-63
2023/09/11 02:50:47;;;;;;;1.70;1.17;;;;;;;16.19;100.00;101763.16;2081532;28;20432;-63
2023/09/11 02:51:47;;;;;;;1.60;1.30;;;;;;;16.15;100.00;101758.91;2080753;28;20360;-64
2023/09/11 02:52:47;;;;;;;3.03;1.53;;;;;;;16.15;100.00;101762.50;2081044;28;20489;-63
2023/09/11 02:53:48;;;;;;;2.90;1.50;;;;;;;16.16;100.00;101755.69;2080896;28;20259;-64
2023/09/11 02:54:48;;;;;;;2.27;1.27;;;;;;;16.16;100.00;101757.69;2080759;28;20251;-64
2023/09/11 02:55:49;;;;;;;2.13;1.67;;;;;;;16.11;100.00;101753.41;2081514;28;20193;-64
2023/09/11 02:56:49;;;;;;;6.40;1.67;;;;;;;16.09;100.00;101760.69;2081493;28;20180;-64
2023/09/11 02:57:49;;;;;;;6.40;2.03;;;;;;;16.04;100.00;101756.41;2081495;28;20227;-64
2023/09/11 02:58:50;;;;;;;3.20;1.70;;;;;;;16.00;100.00;101764.13;2081556;28;20189;-63
2023/09/11 02:59:55;;;;;;;2.93;1.47;;;;;;;15.91;100.00;101750.00;2080769;28;20226;-64
2023/09/11 03:01:00;;;;;;;4.23;1.97;;;;;;;15.58;100.00;101701.00;2080990;28;20620;-64
2023/09/11 03:02:01;;;;;;;3.97;1.50;;;;;;;15.84;100.00;101758.56;2081550;28;20430;-64
2023/09/11 03:03:03;;;;;;;2.83;1.40;;;;;;;15.78;100.00;101751.94;2076064;28;20532;-64
2023/09/11 03:04:03;;;;;;;4.93;1.60;;;;;;;15.72;100.00;101753.72;2073178;28;20205;-64
2023/09/11 03:05:04;;;;;;;5.17;1.47;;;;;;;15.11;100.00;101666.31;2073345;28;20454;-64
2023/09/11 03:06:05;;;;;;;5.13;1.80;;;;;;;15.47;100.00;101713.72;2074352;28;20179;-63
2023/09/11 03:07:05;;;;;;;4.30;1.70;;;;;;;15.77;100.00;101752.41;2081533;28;20176;-64
2023/09/11 03:08:06;;;;;;;3.87;1.70;;;;;;;15.76;100.00;101748.81;2081488;28;20429;-64
2023/09/11 03:09:06;;;;;;;3.03;1.50;;;;;;;15.75;100.00;101749.25;2088989;28;20233;-64
2023/09/11 03:10:07;;;;;;;4.50;1.40;;;;;;;15.75;100.00;101747.25;2089747;28;20179;-64
2023/09/11 03:11:09;;;;;;;1.47;1.20;;;;;;;15.53;100.00;101734.28;2085793;28;20691;-64
2023/09/11 03:12:09;;;;;;;5.67;1.40;;;;;;;15.67;100.00;101742.31;2081538;28;20190;-64
2023/09/11 03:13:10;;;;;;;2.00;1.23;;;;;;;15.72;100.00;101756.50;2081554;28;20419;-64
2023/09/11 03:14:11;;;;;;;2.47;1.40;;;;;;;15.70;100.00;101749.78;2081387;28;20180;-63
2023/09/11 03:15:12;;;;;;;2.87;1.37;;;;;;;15.70;100.00;101753.38;2081366;28;20278;-64
2023/09/11 03:16:14;;;;;;;4.43;2.10;;;;;;;15.68;100.00;101749.47;2081359;28;20411;-63
2023/09/11 03:17:14;;;;;;;7.47;1.80;;;;;;;15.60;100.00;101748.06;2081373;28;20206;-63
2023/09/11 03:18:15;;;;;;;2.73;1.47;;;;;;;15.40;100.00;101725.84;2081431;28;20431;-63
2023/09/11 03:19:15;;;;;;;3.50;1.50;;;;;;;15.54;100.00;101744.22;2081481;28;20187;-64
2023/09/11 03:20:16;;;;;;;3.43;1.23;;;;;;;15.60;100.00;101760.03;2080740;28;20192;-64
2023/09/11 03:21:16;;;;;;;5.97;1.73;;;;;;;15.63;100.00;101761.16;2080848;28;20224;-64
2023/09/11 03:22:16;;;;;;;8.30;2.20;;;;;;;15.59;100.00;101754.88;2081332;28;20191;-64
2023/09/11 03:23:18;;;;;;;9.30;2.00;;;;;;;15.53;100.00;101765.78;2081378;28;20179;-63
2023/09/11 03:24:19;;;;;;;9.43;1.70;;;;;;;15.44;100.00;101760.06;2081240;28;20588;-64
2023/09/11 03:25:19;;;;;;;3.00;1.30;;;;;;;15.35;100.00;101759.88;2080769;28;20493;-63
2023/09/11 03:26:19;;;;;;;2.50;1.53;;;;;;;15.34;100.00;101757.53;2080809;28;20188;-63
2023/09/11 03:27:20;;;;;;;4.57;1.73;;;;;;;15.32;100.00;101759.94;2081303;28;20284;-64
2023/09/11 03:28:20;;;;;;;3.40;1.90;;;;;;;15.32;100.00;101760.72;2081402;28;20184;-64
2023/09/11 03:29:21;;;;;;;2.47;1.60;;;;;;;15.35;100.00;101762.69;2077254;28;20195;-63
2023/09/11 03:30:21;;;;;;;2.03;1.33;;;;;;;15.37;100.00;101760.22;2073301;28;20263;-64
2023/09/11 03:31:22;;;;;;;5.50;1.27;;;;;;;15.39;100.00;101762.59;2073121;28;20180;-63
2023/09/11 03:32:22;;;;;;;3.17;1.60;;;;;;;15.43;100.00;101754.91;2073220;28;20210;-64
2023/09/11 03:33:23;;;;;;;4.30;1.40;;;;;;;15.43;100.00;101760.50;2073245;28;20216;-64
2023/09/11 03:34:23;;;;;;;2.57;1.37;;;;;;;15.21;100.00;101728.72;2078919;28;20187;-64
2023/09/11 03:35:24;;;;;;;2.80;1.40;;;;;;;15.42;100.00;101762.50;2080853;28;20220;-63
2023/09/11 03:36:24;;;;;;;3.17;1.57;;;;;;;15.42;100.00;101761.72;2081337;28;20177;-63
2023/09/11 03:37:25;;;;;;;2.53;1.30;;;;;;;15.40;100.00;101762.16;2081403;28;20179;-63
2023/09/11 03:38:25;;;;;;;2.47;1.40;;;;;;;15.40;100.00;101764.16;2081252;28;20253;-64
2023/09/11 03:39:25;;;;;;;3.87;1.77;;;;;;;15.41;100.00;101768.50;2081365;28;20263;-63
2023/09/11 03:40:28;;;;;;;2.50;1.27;;;;;;;15.42;100.00;101765.28;2081254;28;20181;-63
2023/09/11 03:41:29;;;;;;;1.97;1.10;;;;;;;15.42;100.00;101770.88;2081363;28;20169;-63
2023/09/11 03:42:29;;;;;;;2.00;1.20;;;;;;;15.43;100.00;101768.88;2080649;28;20431;-63
2023/09/11 03:43:30;;;;;;;2.23;1.30;;;;;;;15.40;100.00;101766.94;2080648;28;20423;-63
2023/09/11 03:44:30;;;;;;;2.97;1.33;;;;;;;15.20;100.00;101744.69;2073252;28;20181;-64
2023/09/11 03:45:31;;;;;;;2.00;1.23;;;;;;;15.34;100.00;101763.13;2073083;28;20184;-64
2023/09/11 03:46:31;;;;;;;3.23;1.60;;;;;;;15.31;100.00;101763.97;2073023;28;20173;-64
2023/09/11 03:47:32;;;;;;;5.47;1.40;;;;;;;15.27;100.00;101766.84;2073157;28;20174;-64
2023/09/11 03:48:32;;;;;;;3.67;1.33;;;;;;;15.25;100.00;101769.28;2073131;28;20539;-64
2023/09/11 03:49:32;;;;;;;5.43;1.30;;;;;;;15.26;100.00;101765.28;2073033;28;20177;-65
2023/09/11 03:50:33;;;;;;;2.57;1.43;;;;;;;15.22;100.00;101770.16;2073165;28;20174;-64
2023/09/11 03:51:34;;;;;;;2.20;1.27;;;;;;;15.21;100.00;101770.63;2072981;28;20252;-64
2023/09/11 03:52:34;;;;;;;2.13;1.57;;;;;;;15.23;100.00;101765.38;2073530;28;20731;-64
2023/09/11 03:53:34;;;;;;;2.47;1.60;;;;;;;15.23;100.00;101771.75;2074648;28;20177;-64
2023/09/11 03:54:35;;;;;;;4.50;1.60;;;;;;;15.22;100.00;101767.34;2074683;28;20182;-64
2023/09/11 03:55:36;;;;;;;2.53;1.40;;;;;;;15.16;100.00;101757.94;2073937;28;20232;-65
2023/09/11 03:56:37;;;;;;;2.07;1.40;;;;;;;15.19;100.00;101771.03;2074196;28;20174;-64
2023/09/11 03:57:38;;;;;;;3.03;1.63;;;;;;;15.18;100.00;101772.28;2074718;28;20440;-64
2023/09/11 03:58:39;;;;;;;1.97;1.30;;;;;;;15.19;100.00;101768.25;2074641;28;20178;-64
2023/09/11 03:59:39;;;;;;;4.80;1.53;;;;;;;15.20;100.00;101766.22;2074624;28;20181;-64
2023/09/11 04:00:40;;;;;;;3.57;1.47;;;;;;;15.22;100.00;101774.97;2074726;28;20416;-64
2023/09/11 04:01:40;;;;;;;2.07;1.40;;;;;;;15.21;100.00;101771.38;2076447;28;20658;-64
2023/09/11 04:02:40;;;;;;;1.60;1.20;;;;;;;15.21;100.00;101776.19;2087430;28;20616;-64
2023/09/11 04:03:42;;;;;;;3.83;1.70;;;;;;;15.24;100.00;101778.09;2088403;28;20312;-60
2023/09/11 04:04:42;;;;;;;1.47;0.67;;;;;;;16.54;100.00;101792.16;2085944;28;20193;-63
2023/09/11 04:05:42;;;;;;;3.27;1.33;;;;;;;17.78;100.00;101790.53;2095213;28;20465;-64
2023/09/11 04:06:43;;;;;;;2.30;1.40;;;;;;;18.50;100.00;101793.09;2092698;28;20195;-63
2023/09/11 04:07:43;;;;;;;2.60;1.60;;;;;;;18.89;100.00;101761.50;2084438;28;20194;-59
2023/09/11 04:08:44;;;;;;;3.07;1.43;;;;;;;19.57;100.00;101798.41;2083311;28;20203;-59
2023/09/11 04:09:44;;;;;;;3.77;1.40;;;;;;;20.08;100.00;101793.00;2083558;28;20193;-59
2023/09/11 04:10:45;;;;;;;3.30;1.63;;;;;;;20.44;100.00;101781.69;2082491;28;20264;-60
2023/09/11 04:11:45;;;;;;;2.13;1.40;;;;;;;20.74;100.00;101773.00;2085446;28;20181;-60
2023/09/11 04:12:45;;;;;;;3.37;1.87;;;;;;;21.11;100.00;101770.84;2082661;28;20185;-61
2023/09/11 04:13:46;;;;;;;4.43;1.47;;;;;;;21.36;100.00;101770.38;2086789;28;20169;-59
2023/09/11 04:14:46;;;;;;;3.70;1.67;;;;;;;21.56;100.00;101770.56;2085453;28;20569;-59
2023/09/11 04:15:47;;;;;;;7.30;1.43;;;;;;;21.73;100.00;101769.69;2090585;28;20266;-60
2023/09/11 04:16:47;;;;;;;4.17;1.60;;;;;;;21.85;100.00;101765.06;2088616;28;20203;-60
2023/09/11 04:17:48;;;;;;;3.40;1.50;;;;;;;22.04;100.00;101763.59;2087964;28;20189;-60
2023/09/11 04:18:48;;;;;;;4.47;1.93;;;;;;;22.09;100.00;101760.91;2084864;28;20267;-61
2023/09/11 04:19:48;;;;;;;3.03;1.70;;;;;;;21.89;100.00;101768.44;2086832;28;20203;-60
2023/09/11 04:20:49;;;;;;;7.33;1.80;;;;;;;21.83;100.00;101753.44;2091050;28;20187;-60
2023/09/11 04:21:49;;;;;;;7.80;2.30;;;;;;;21.63;100.00;101756.88;2089590;28;20208;-59
2023/09/11 04:22:50;;;;;;;5.63;2.27;;;;;;;21.43;100.00;101755.91;2082606;28;20181;-59
2023/09/11 04:23:50;;;;;;;6.37;1.43;;;;;;;21.37;100.00;101753.00;2082544;28;20209;-60
2023/09/11 04:24:50;;;;;;;7.13;1.80;;;;;;;21.28;100.00;101752.28;2081753;28;20764;-61
2023/09/11 04:25:54;;;;;;;9.23;2.23;;;;;;;21.10;100.00;101758.78;2081926;28;20644;-60
2023/09/11 04:26:54;;;;;;;3.33;1.40;;;;;;;21.11;100.00;101749.06;2082748;28;20173;-60
2023/09/11 04:27:55;;;;;;;3.90;1.67;;;;;;;21.24;100.00;101762.94;2082737;28;20183;-60
2023/09/11 04:28:55;;;;;;;7.63;2.27;;;;;;;21.22;100.00;101759.81;2082860;28;20212;-60
2023/09/11 04:29:56;;;;;;;8.10;1.80;;;;;;;21.17;100.00;101755.63;2082777;28;20185;-60
2023/09/11 04:30:56;;;;;;;4.93;1.93;;;;;;;21.19;100.00;101755.13;2082617;28;20563;-60
2023/09/11 04:31:57;;;;;;;6.37;2.20;;;;;;;21.16;100.00;101768.16;2082689;28;20177;-59
2023/09/11 04:32:57;;;;;;;7.00;1.70;;;;;;;21.17;100.00;101761.25;2082477;28;20180;-60
2023/09/11 04:33:58;;;;;;;5.97;2.30;;;;;;;21.33;100.00;101760.06;2082566;28;20183;-59
2023/09/11 04:34:58;;;;;;;4.83;2.23;;;;;;;21.53;100.00;101775.13;2085378;28;20249;-58
2023/09/11 04:35:58;;;;;;;9.47;2.27;;;;;;;21.70;100.00;101770.63;2090894;28;20195;-59
2023/09/11 04:36:59;;;;;;;7.77;1.93;;;;;;;21.86;100.00;101780.72;2090769;28;20203;-59
2023/09/11 04:37:59;;;;;;;4.70;2.43;;;;;;;22.06;100.00;101778.03;2085096;28;20628;-58
2023/09/11 04:39:01;;;;;;;6.00;1.77;;;;;;;22.14;100.00;101773.56;2082493;28;20199;-59
2023/09/11 04:40:02;;;;;;;3.43;1.60;;;;;;;22.12;100.00;101771.25;2084064;28;20681;-59
2023/09/11 04:41:02;;;;;;;3.83;1.87;;;;;;;22.27;100.00;101774.84;2090327;28;20811;-58
2023/09/11 04:42:03;;;;;;;6.57;2.23;;;;;;;22.22;100.00;101777.56;2082594;28;20571;-59
2023/09/11 04:43:04;;;;;;;4.43;2.20;;;;;;;22.11;100.00;101775.31;2082564;28;20659;-60